Terminal Aerodrome Forecast
Issued by NWS

Home | Current Version | Previous Version | Text Only | Print | Product List | Glossary On
Versions: 1 2 3 4 5 6 7 8 9 10 11 12 13
000
FTUS43 KGRB 061723
TAFATW
TAF
KATW 061723Z 0618/0718 24010KT P6SM SCT020 OVC100
      TEMPO 0618/0621 3SM SHRA BR BKN020
     FM062100 21012KT P6SM -SHRA SCT012 OVC040
      TEMPO 0621/0701 1SM +TSRA BR BKN012CB
     FM070100 34012KT 5SM SHRA BR BKN008 OVC040
     FM070400 34012G18KT 6SM -SHRA BR BKN015
     FM070700 34011KT P6SM SCT015 OVC030
     FM071400 36011KT P6SM SCT030=

USA.gov is the U.S. government's official web portal to all federal, state and local government web resources and services.